sensor_id;sensor_type;location;lat;lon;timestamp;P1;durP1;ratioP1;P2;durP2;ratioP2
46284;SDS011;32018;59.182;18.148;2024-01-25T00:00:44;0.90;;;0.90;;
46284;SDS011;32018;59.182;18.148;2024-01-25T00:03:09;0.90;;;0.90;;
46284;SDS011;32018;59.182;18.148;2024-01-25T00:05:34;0.90;;;0.90;;
46284;SDS011;32018;59.182;18.148;2024-01-25T00:07:59;1.00;;;1.00;;
46284;SDS011;32018;59.182;18.148;2024-01-25T00:10:25;0.80;;;0.80;;
46284;SDS011;32018;59.182;18.148;2024-01-25T00:12:50;0.90;;;0.90;;
46284;SDS011;32018;59.182;18.148;2024-01-25T00:15:15;0.90;;;0.90;;
46284;SDS011;32018;59.182;18.148;2024-01-25T00:17:41;0.80;;;0.80;;
46284;SDS011;32018;59.182;18.148;2024-01-25T00:20:06;0.70;;;0.70;;
46284;SDS011;32018;59.182;18.148;2024-01-25T00:22:34;0.80;;;0.80;;
46284;SDS011;32018;59.182;18.148;2024-01-25T00:24:59;0.90;;;0.90;;
46284;SDS011;32018;59.182;18.148;2024-01-25T00:27:24;0.80;;;0.80;;
46284;SDS011;32018;59.182;18.148;2024-01-25T00:29:50;0.90;;;0.90;;
46284;SDS011;32018;59.182;18.148;2024-01-25T00:32:15;0.88;;;0.88;;
46284;SDS011;32018;59.182;18.148;2024-01-25T00:34:40;0.80;;;0.80;;
46284;SDS011;32018;59.182;18.148;2024-01-25T00:37:06;0.82;;;0.82;;
46284;SDS011;32018;59.182;18.148;2024-01-25T00:39:31;0.90;;;0.90;;
46284;SDS011;32018;59.182;18.148;2024-01-25T00:41:58;0.80;;;0.80;;
46284;SDS011;32018;59.182;18.148;2024-01-25T00:44:26;0.90;;;0.90;;
46284;SDS011;32018;59.182;18.148;2024-01-25T00:46:52;0.80;;;0.80;;
46284;SDS011;32018;59.182;18.148;2024-01-25T00:49:18;1.00;;;1.00;;
46284;SDS011;32018;59.182;18.148;2024-01-25T00:51:45;0.80;;;0.80;;
46284;SDS011;32018;59.182;18.148;2024-01-25T00:54:11;0.80;;;0.80;;
46284;SDS011;32018;59.182;18.148;2024-01-25T00:56:36;0.70;;;0.70;;
46284;SDS011;32018;59.182;18.148;2024-01-25T00:59:02;0.82;;;0.82;;
46284;SDS011;32018;59.182;18.148;2024-01-25T01:01:27;0.93;;;0.93;;
46284;SDS011;32018;59.182;18.148;2024-01-25T01:03:53;0.80;;;0.80;;
46284;SDS011;32018;59.182;18.148;2024-01-25T01:06:19;0.75;;;0.75;;
46284;SDS011;32018;59.182;18.148;2024-01-25T01:08:45;0.90;;;0.90;;
46284;SDS011;32018;59.182;18.148;2024-01-25T01:11:11;1.10;;;1.00;;
46284;SDS011;32018;59.182;18.148;2024-01-25T01:13:36;0.77;;;0.77;;
46284;SDS011;32018;59.182;18.148;2024-01-25T01:16:01;0.80;;;0.80;;
46284;SDS011;32018;59.182;18.148;2024-01-25T01:18:26;0.80;;;0.80;;
46284;SDS011;32018;59.182;18.148;2024-01-25T01:20:51;0.90;;;0.90;;
46284;SDS011;32018;59.182;18.148;2024-01-25T01:23:17;0.80;;;0.80;;
46284;SDS011;32018;59.182;18.148;2024-01-25T01:25:42;0.80;;;0.80;;
46284;SDS011;32018;59.182;18.148;2024-01-25T01:28:08;0.90;;;0.90;;
46284;SDS011;32018;59.182;18.148;2024-01-25T01:30:33;1.25;;;0.80;;
46284;SDS011;32018;59.182;18.148;2024-01-25T01:32:58;1.00;;;0.95;;
46284;SDS011;32018;59.182;18.148;2024-01-25T01:35:23;0.80;;;0.80;;
46284;SDS011;32018;59.182;18.148;2024-01-25T01:37:48;0.80;;;0.80;;
46284;SDS011;32018;59.182;18.148;2024-01-25T01:40:14;0.70;;;0.70;;
46284;SDS011;32018;59.182;18.148;2024-01-25T01:42:39;0.80;;;0.80;;
46284;SDS011;32018;59.182;18.148;2024-01-25T01:45:04;0.70;;;0.70;;
46284;SDS011;32018;59.182;18.148;2024-01-25T01:47:30;0.70;;;0.70;;
46284;SDS011;32018;59.182;18.148;2024-01-25T01:49:55;0.80;;;0.80;;
46284;SDS011;32018;59.182;18.148;2024-01-25T01:52:23;0.80;;;0.80;;
46284;SDS011;32018;59.182;18.148;2024-01-25T01:54:48;0.80;;;0.80;;
46284;SDS011;32018;59.182;18.148;2024-01-25T01:57:13;0.82;;;0.82;;
46284;SDS011;32018;59.182;18.148;2024-01-25T01:59:39;0.90;;;0.90;;
46284;SDS011;32018;59.182;18.148;2024-01-25T02:02:04;0.85;;;0.85;;
46284;SDS011;32018;59.182;18.148;2024-01-25T02:04:30;0.95;;;0.95;;
46284;SDS011;32018;59.182;18.148;2024-01-25T02:06:56;0.80;;;0.80;;
46284;SDS011;32018;59.182;18.148;2024-01-25T02:09:21;0.98;;;0.90;;
46284;SDS011;32018;59.182;18.148;2024-01-25T02:11:46;0.90;;;0.90;;
46284;SDS011;32018;59.182;18.148;2024-01-25T02:14:12;0.70;;;0.70;;
46284;SDS011;32018;59.182;18.148;2024-01-25T02:16:38;0.80;;;0.80;;
46284;SDS011;32018;59.182;18.148;2024-01-25T02:19:08;0.90;;;0.90;;
46284;SDS011;32018;59.182;18.148;2024-01-25T02:21:33;0.88;;;0.88;;
46284;SDS011;32018;59.182;18.148;2024-01-25T02:23:58;0.93;;;0.93;;
46284;SDS011;32018;59.182;18.148;2024-01-25T02:26:24;1.05;;;1.00;;
46284;SDS011;32018;59.182;18.148;2024-01-25T02:28:49;1.00;;;1.00;;
46284;SDS011;32018;59.182;18.148;2024-01-25T02:31:14;1.08;;;1.08;;
46284;SDS011;32018;59.182;18.148;2024-01-25T02:33:39;0.95;;;0.95;;
46284;SDS011;32018;59.182;18.148;2024-01-25T02:36:05;0.98;;;0.98;;
46284;SDS011;32018;59.182;18.148;2024-01-25T02:38:30;0.77;;;0.77;;
46284;SDS011;32018;59.182;18.148;2024-01-25T02:40:58;1.00;;;1.00;;
46284;SDS011;32018;59.182;18.148;2024-01-25T02:43:23;0.82;;;0.82;;
46284;SDS011;32018;59.182;18.148;2024-01-25T02:45:48;1.63;;;1.52;;
46284;SDS011;32018;59.182;18.148;2024-01-25T02:48:14;1.00;;;0.90;;
46284;SDS011;32018;59.182;18.148;2024-01-25T02:50:39;0.80;;;0.80;;
46284;SDS011;32018;59.182;18.148;2024-01-25T02:53:04;1.20;;;1.10;;
46284;SDS011;32018;59.182;18.148;2024-01-25T02:55:30;0.90;;;0.90;;
46284;SDS011;32018;59.182;18.148;2024-01-25T02:57:55;1.08;;;1.08;;
46284;SDS011;32018;59.182;18.148;2024-01-25T03:00:20;0.93;;;0.93;;
46284;SDS011;32018;59.182;18.148;2024-01-25T03:02:46;1.10;;;0.95;;
46284;SDS011;32018;59.182;18.148;2024-01-25T03:05:11;1.00;;;1.00;;
46284;SDS011;32018;59.182;18.148;2024-01-25T03:07:36;1.23;;;1.00;;
46284;SDS011;32018;59.182;18.148;2024-01-25T03:10:01;1.40;;;1.07;;
46284;SDS011;32018;59.182;18.148;2024-01-25T03:12:27;1.08;;;1.00;;
46284;SDS011;32018;59.182;18.148;2024-01-25T03:14:52;0.75;;;0.75;;
46284;SDS011;32018;59.182;18.148;2024-01-25T03:17:18;1.73;;;0.90;;
46284;SDS011;32018;59.182;18.148;2024-01-25T03:19:43;0.80;;;0.80;;
46284;SDS011;32018;59.182;18.148;2024-01-25T03:22:08;0.80;;;0.80;;
46284;SDS011;32018;59.182;18.148;2024-01-25T03:24:36;0.93;;;0.90;;
46284;SDS011;32018;59.182;18.148;2024-01-25T03:27:02;0.70;;;0.70;;
46284;SDS011;32018;59.182;18.148;2024-01-25T03:29:27;1.23;;;0.80;;
46284;SDS011;32018;59.182;18.148;2024-01-25T03:31:52;1.10;;;1.00;;
46284;SDS011;32018;59.182;18.148;2024-01-25T03:34:17;0.93;;;0.90;;
46284;SDS011;32018;59.182;18.148;2024-01-25T03:36:43;1.10;;;1.00;;
46284;SDS011;32018;59.182;18.148;2024-01-25T03:39:08;0.90;;;0.90;;
46284;SDS011;32018;59.182;18.148;2024-01-25T03:41:33;0.70;;;0.70;;
46284;SDS011;32018;59.182;18.148;2024-01-25T03:43:58;0.70;;;0.70;;
46284;SDS011;32018;59.182;18.148;2024-01-25T03:46:24;0.70;;;0.70;;
46284;SDS011;32018;59.182;18.148;2024-01-25T03:48:49;0.65;;;0.65;;
46284;SDS011;32018;59.182;18.148;2024-01-25T03:51:14;0.70;;;0.70;;
46284;SDS011;32018;59.182;18.148;2024-01-25T03:53:39;0.68;;;0.68;;
46284;SDS011;32018;59.182;18.148;2024-01-25T03:56:13;0.65;;;0.63;;
46284;SDS011;32018;59.182;18.148;2024-01-25T03:58:38;0.70;;;0.70;;
46284;SDS011;32018;59.182;18.148;2024-01-25T04:01:04;0.70;;;0.70;;
46284;SDS011;32018;59.182;18.148;2024-01-25T04:03:29;0.70;;;0.70;;
46284;SDS011;32018;59.182;18.148;2024-01-25T04:05:54;1.30;;;0.73;;
46284;SDS011;32018;59.182;18.148;2024-01-25T04:08:20;0.50;;;0.50;;
46284;SDS011;32018;59.182;18.148;2024-01-25T04:10:45;0.70;;;0.70;;
46284;SDS011;32018;59.182;18.148;2024-01-25T04:13:10;1.33;;;0.90;;
46284;SDS011;32018;59.182;18.148;2024-01-25T04:15:35;0.60;;;0.60;;
46284;SDS011;32018;59.182;18.148;2024-01-25T04:18:01;0.60;;;0.60;;
46284;SDS011;32018;59.182;18.148;2024-01-25T04:20:26;0.60;;;0.60;;
46284;SDS011;32018;59.182;18.148;2024-01-25T04:22:51;1.35;;;1.25;;
46284;SDS011;32018;59.182;18.148;2024-01-25T04:25:17;0.68;;;0.68;;
46284;SDS011;32018;59.182;18.148;2024-01-25T04:27:42;0.70;;;0.70;;
46284;SDS011;32018;59.182;18.148;2024-01-25T04:30:07;0.90;;;0.90;;
46284;SDS011;32018;59.182;18.148;2024-01-25T04:32:33;0.90;;;0.90;;
46284;SDS011;32018;59.182;18.148;2024-01-25T04:34:58;0.70;;;0.70;;
46284;SDS011;32018;59.182;18.148;2024-01-25T04:37:23;0.77;;;0.77;;
46284;SDS011;32018;59.182;18.148;2024-01-25T04:39:48;0.70;;;0.70;;
46284;SDS011;32018;59.182;18.148;2024-01-25T04:42:14;0.85;;;0.70;;
46284;SDS011;32018;59.182;18.148;2024-01-25T04:44:39;0.80;;;0.80;;
46284;SDS011;32018;59.182;18.148;2024-01-25T04:47:04;0.80;;;0.80;;
46284;SDS011;32018;59.182;18.148;2024-01-25T04:49:29;0.90;;;0.90;;
46284;SDS011;32018;59.182;18.148;2024-01-25T04:51:55;0.77;;;0.77;;
46284;SDS011;32018;59.182;18.148;2024-01-25T04:54:20;5.28;;;1.00;;
46284;SDS011;32018;59.182;18.148;2024-01-25T04:56:45;0.70;;;0.70;;
46284;SDS011;32018;59.182;18.148;2024-01-25T04:59:10;1.00;;;0.80;;
46284;SDS011;32018;59.182;18.148;2024-01-25T05:01:36;0.77;;;0.77;;
46284;SDS011;32018;59.182;18.148;2024-01-25T05:04:01;0.85;;;0.85;;
46284;SDS011;32018;59.182;18.148;2024-01-25T05:06:26;0.90;;;0.90;;
46284;SDS011;32018;59.182;18.148;2024-01-25T05:08:51;0.90;;;0.90;;
46284;SDS011;32018;59.182;18.148;2024-01-25T05:11:17;2.00;;;1.00;;
46284;SDS011;32018;59.182;18.148;2024-01-25T05:13:42;0.75;;;0.75;;
46284;SDS011;32018;59.182;18.148;2024-01-25T05:16:07;1.33;;;1.00;;
46284;SDS011;32018;59.182;18.148;2024-01-25T05:18:33;1.20;;;1.10;;
46284;SDS011;32018;59.182;18.148;2024-01-25T05:20:58;1.00;;;0.88;;
46284;SDS011;32018;59.182;18.148;2024-01-25T05:23:23;0.95;;;0.80;;
46284;SDS011;32018;59.182;18.148;2024-01-25T05:25:49;1.67;;;1.10;;
46284;SDS011;32018;59.182;18.148;2024-01-25T05:28:14;0.70;;;0.70;;
46284;SDS011;32018;59.182;18.148;2024-01-25T05:30:39;0.80;;;0.80;;
46284;SDS011;32018;59.182;18.148;2024-01-25T05:33:05;1.10;;;1.03;;
46284;SDS011;32018;59.182;18.148;2024-01-25T05:35:30;1.30;;;0.90;;
46284;SDS011;32018;59.182;18.148;2024-01-25T05:37:55;0.95;;;0.90;;
46284;SDS011;32018;59.182;18.148;2024-01-25T05:40:20;1.67;;;1.00;;
46284;SDS011;32018;59.182;18.148;2024-01-25T05:42:45;0.70;;;0.70;;
46284;SDS011;32018;59.182;18.148;2024-01-25T05:45:11;1.15;;;1.15;;
46284;SDS011;32018;59.182;18.148;2024-01-25T05:47:36;1.30;;;1.20;;
46284;SDS011;32018;59.182;18.148;2024-01-25T05:50:02;0.85;;;0.85;;
46284;SDS011;32018;59.182;18.148;2024-01-25T05:52:27;1.10;;;0.98;;
46284;SDS011;32018;59.182;18.148;2024-01-25T05:54:52;1.17;;;1.00;;
46284;SDS011;32018;59.182;18.148;2024-01-25T05:57:17;1.00;;;1.00;;
46284;SDS011;32018;59.182;18.148;2024-01-25T05:59:43;1.33;;;1.00;;
46284;SDS011;32018;59.182;18.148;2024-01-25T06:02:09;1.17;;;1.00;;
46284;SDS011;32018;59.182;18.148;2024-01-25T06:04:34;1.08;;;0.88;;
46284;SDS011;32018;59.182;18.148;2024-01-25T06:06:59;1.35;;;1.15;;
46284;SDS011;32018;59.182;18.148;2024-01-25T06:09:25;1.00;;;1.00;;
46284;SDS011;32018;59.182;18.148;2024-01-25T06:11:50;0.80;;;0.80;;
46284;SDS011;32018;59.182;18.148;2024-01-25T06:14:16;0.90;;;0.90;;
46284;SDS011;32018;59.182;18.148;2024-01-25T06:16:41;1.10;;;0.90;;
46284;SDS011;32018;59.182;18.148;2024-01-25T06:19:06;0.80;;;0.80;;
46284;SDS011;32018;59.182;18.148;2024-01-25T06:21:32;1.67;;;1.30;;
46284;SDS011;32018;59.182;18.148;2024-01-25T06:24:00;1.30;;;1.10;;
46284;SDS011;32018;59.182;18.148;2024-01-25T06:26:25;1.25;;;1.20;;
46284;SDS011;32018;59.182;18.148;2024-01-25T06:28:50;1.25;;;1.15;;
46284;SDS011;32018;59.182;18.148;2024-01-25T06:31:16;1.33;;;1.23;;
46284;SDS011;32018;59.182;18.148;2024-01-25T06:33:41;0.88;;;0.88;;
46284;SDS011;32018;59.182;18.148;2024-01-25T06:36:06;1.40;;;1.30;;
46284;SDS011;32018;59.182;18.148;2024-01-25T06:38:31;1.50;;;1.38;;
46284;SDS011;32018;59.182;18.148;2024-01-25T06:40:57;1.00;;;0.90;;
46284;SDS011;32018;59.182;18.148;2024-01-25T06:43:22;1.40;;;1.20;;
46284;SDS011;32018;59.182;18.148;2024-01-25T06:45:47;1.55;;;1.45;;
46284;SDS011;32018;59.182;18.148;2024-01-25T06:48:12;1.20;;;1.20;;
46284;SDS011;32018;59.182;18.148;2024-01-25T06:50:37;1.08;;;0.80;;
46284;SDS011;32018;59.182;18.148;2024-01-25T06:53:03;0.90;;;0.90;;
46284;SDS011;32018;59.182;18.148;2024-01-25T06:55:29;0.85;;;0.85;;
46284;SDS011;32018;59.182;18.148;2024-01-25T06:57:54;1.23;;;1.10;;
46284;SDS011;32018;59.182;18.148;2024-01-25T07:00:19;0.87;;;0.87;;
46284;SDS011;32018;59.182;18.148;2024-01-25T07:02:46;0.93;;;0.93;;
46284;SDS011;32018;59.182;18.148;2024-01-25T07:05:11;1.27;;;1.20;;
46284;SDS011;32018;59.182;18.148;2024-01-25T07:07:36;1.40;;;1.30;;
46284;SDS011;32018;59.182;18.148;2024-01-25T07:10:03;1.00;;;1.00;;
46284;SDS011;32018;59.182;18.148;2024-01-25T07:12:29;1.02;;;0.93;;
46284;SDS011;32018;59.182;18.148;2024-01-25T07:14:55;1.02;;;0.93;;
46284;SDS011;32018;59.182;18.148;2024-01-25T07:17:20;0.90;;;0.90;;
46284;SDS011;32018;59.182;18.148;2024-01-25T07:19:45;1.10;;;1.00;;
46284;SDS011;32018;59.182;18.148;2024-01-25T07:22:10;0.90;;;0.90;;
46284;SDS011;32018;59.182;18.148;2024-01-25T07:24:38;0.93;;;0.93;;
46284;SDS011;32018;59.182;18.148;2024-01-25T07:27:04;0.87;;;0.87;;
46284;SDS011;32018;59.182;18.148;2024-01-25T07:29:29;1.58;;;1.00;;
46284;SDS011;32018;59.182;18.148;2024-01-25T07:31:54;1.40;;;1.00;;
46284;SDS011;32018;59.182;18.148;2024-01-25T07:34:19;0.98;;;0.98;;
46284;SDS011;32018;59.182;18.148;2024-01-25T07:36:45;1.10;;;1.00;;
46284;SDS011;32018;59.182;18.148;2024-01-25T07:39:10;1.10;;;1.00;;
46284;SDS011;32018;59.182;18.148;2024-01-25T07:41:36;0.82;;;0.82;;
46284;SDS011;32018;59.182;18.148;2024-01-25T07:44:02;2.17;;;1.30;;
46284;SDS011;32018;59.182;18.148;2024-01-25T07:46:27;1.10;;;1.10;;
46284;SDS011;32018;59.182;18.148;2024-01-25T07:48:52;1.02;;;1.02;;
46284;SDS011;32018;59.182;18.148;2024-01-25T07:51:17;1.20;;;1.10;;
46284;SDS011;32018;59.182;18.148;2024-01-25T07:53:43;1.10;;;1.00;;
46284;SDS011;32018;59.182;18.148;2024-01-25T07:56:08;0.80;;;0.80;;
46284;SDS011;32018;59.182;18.148;2024-01-25T07:58:36;3.47;;;1.00;;
46284;SDS011;32018;59.182;18.148;2024-01-25T08:01:02;1.10;;;1.00;;
46284;SDS011;32018;59.182;18.148;2024-01-25T08:03:27;1.65;;;1.55;;
46284;SDS011;32018;59.182;18.148;2024-01-25T08:05:52;1.73;;;1.05;;
46284;SDS011;32018;59.182;18.148;2024-01-25T08:08:18;0.88;;;0.80;;
46284;SDS011;32018;59.182;18.148;2024-01-25T08:10:43;0.93;;;0.93;;
46284;SDS011;32018;59.182;18.148;2024-01-25T08:13:10;1.02;;;0.95;;
46284;SDS011;32018;59.182;18.148;2024-01-25T08:15:36;0.93;;;0.90;;
46284;SDS011;32018;59.182;18.148;2024-01-25T08:18:01;0.93;;;0.90;;
46284;SDS011;32018;59.182;18.148;2024-01-25T08:20:27;0.90;;;0.90;;
46284;SDS011;32018;59.182;18.148;2024-01-25T08:22:52;0.70;;;0.70;;
46284;SDS011;32018;59.182;18.148;2024-01-25T08:25:18;0.80;;;0.80;;
46284;SDS011;32018;59.182;18.148;2024-01-25T08:27:45;1.08;;;0.90;;
46284;SDS011;32018;59.182;18.148;2024-01-25T08:30:10;0.80;;;0.80;;
46284;SDS011;32018;59.182;18.148;2024-01-25T08:32:35;0.90;;;0.90;;
46284;SDS011;32018;59.182;18.148;2024-01-25T08:35:01;0.70;;;0.70;;
46284;SDS011;32018;59.182;18.148;2024-01-25T08:37:26;0.60;;;0.60;;
46284;SDS011;32018;59.182;18.148;2024-01-25T08:39:51;0.70;;;0.70;;
46284;SDS011;32018;59.182;18.148;2024-01-25T08:42:17;0.77;;;0.77;;
46284;SDS011;32018;59.182;18.148;2024-01-25T08:44:42;1.50;;;0.80;;
46284;SDS011;32018;59.182;18.148;2024-01-25T08:47:13;0.70;;;0.70;;
46284;SDS011;32018;59.182;18.148;2024-01-25T08:49:41;0.70;;;0.70;;
46284;SDS011;32018;59.182;18.148;2024-01-25T08:52:07;0.90;;;0.90;;
46284;SDS011;32018;59.182;18.148;2024-01-25T08:54:32;0.70;;;0.70;;
46284;SDS011;32018;59.182;18.148;2024-01-25T08:56:58;0.85;;;0.85;;
46284;SDS011;32018;59.182;18.148;2024-01-25T08:59:23;0.80;;;0.80;;
46284;SDS011;32018;59.182;18.148;2024-01-25T09:01:48;0.80;;;0.80;;
46284;SDS011;32018;59.182;18.148;2024-01-25T09:04:13;0.70;;;0.70;;
46284;SDS011;32018;59.182;18.148;2024-01-25T09:06:39;0.80;;;0.80;;
46284;SDS011;32018;59.182;18.148;2024-01-25T09:09:04;0.77;;;0.77;;
46284;SDS011;32018;59.182;18.148;2024-01-25T09:11:30;0.60;;;0.60;;
46284;SDS011;32018;59.182;18.148;2024-01-25T09:13:55;0.68;;;0.68;;
46284;SDS011;32018;59.182;18.148;2024-01-25T09:16:20;0.85;;;0.85;;
46284;SDS011;32018;59.182;18.148;2024-01-25T09:18:47;1.08;;;1.08;;
46284;SDS011;32018;59.182;18.148;2024-01-25T09:21:12;1.00;;;0.90;;
46284;SDS011;32018;59.182;18.148;2024-01-25T09:23:37;0.85;;;0.85;;
46284;SDS011;32018;59.182;18.148;2024-01-25T09:26:02;0.70;;;0.70;;
46284;SDS011;32018;59.182;18.148;2024-01-25T09:28:28;0.77;;;0.77;;
46284;SDS011;32018;59.182;18.148;2024-01-25T09:30:53;0.80;;;0.80;;
46284;SDS011;32018;59.182;18.148;2024-01-25T09:33:19;0.73;;;0.73;;
46284;SDS011;32018;59.182;18.148;2024-01-25T09:35:44;0.80;;;0.75;;
46284;SDS011;32018;59.182;18.148;2024-01-25T09:38:12;1.00;;;0.90;;
46284;SDS011;32018;59.182;18.148;2024-01-25T09:40:37;1.10;;;1.00;;
46284;SDS011;32018;59.182;18.148;2024-01-25T09:43:03;1.35;;;1.05;;
46284;SDS011;32018;59.182;18.148;2024-01-25T09:45:28;0.82;;;0.82;;
46284;SDS011;32018;59.182;18.148;2024-01-25T09:47:55;0.90;;;0.90;;
46284;SDS011;32018;59.182;18.148;2024-01-25T09:50:21;1.00;;;1.00;;
46284;SDS011;32018;59.182;18.148;2024-01-25T09:52:47;1.23;;;1.23;;
46284;SDS011;32018;59.182;18.148;2024-01-25T09:55:15;0.80;;;0.80;;
46284;SDS011;32018;59.182;18.148;2024-01-25T09:57:45;1.55;;;1.20;;
46284;SDS011;32018;59.182;18.148;2024-01-25T10:00:11;0.80;;;0.80;;
46284;SDS011;32018;59.182;18.148;2024-01-25T10:02:37;0.93;;;0.93;;
46284;SDS011;32018;59.182;18.148;2024-01-25T10:05:02;0.90;;;0.90;;
46284;SDS011;32018;59.182;18.148;2024-01-25T10:07:44;0.90;;;0.90;;
46284;SDS011;32018;59.182;18.148;2024-01-25T10:10:10;1.15;;;1.15;;
46284;SDS011;32018;59.182;18.148;2024-01-25T10:12:36;1.00;;;1.00;;
46284;SDS011;32018;59.182;18.148;2024-01-25T10:15:02;1.35;;;1.25;;
46284;SDS011;32018;59.182;18.148;2024-01-25T10:17:28;0.80;;;0.80;;
46284;SDS011;32018;59.182;18.148;2024-01-25T10:19:53;0.90;;;0.90;;
46284;SDS011;32018;59.182;18.148;2024-01-25T10:22:18;1.07;;;1.07;;
46284;SDS011;32018;59.182;18.148;2024-01-25T10:24:43;1.00;;;0.90;;
46284;SDS011;32018;59.182;18.148;2024-01-25T10:27:09;0.98;;;0.90;;
46284;SDS011;32018;59.182;18.148;2024-01-25T10:29:35;1.40;;;1.15;;
46284;SDS011;32018;59.182;18.148;2024-01-25T10:32:01;1.08;;;1.02;;
46284;SDS011;32018;59.182;18.148;2024-01-25T10:34:27;1.10;;;1.02;;
46284;SDS011;32018;59.182;18.148;2024-01-25T10:36:53;2.13;;;1.40;;
46284;SDS011;32018;59.182;18.148;2024-01-25T10:39:18;1.52;;;1.42;;
46284;SDS011;32018;59.182;18.148;2024-01-25T10:41:45;1.45;;;1.35;;
46284;SDS011;32018;59.182;18.148;2024-01-25T10:44:15;1.95;;;1.30;;
46284;SDS011;32018;59.182;18.148;2024-01-25T10:46:41;1.70;;;1.60;;
46284;SDS011;32018;59.182;18.148;2024-01-25T10:49:06;1.75;;;1.65;;
46284;SDS011;32018;59.182;18.148;2024-01-25T10:51:32;1.55;;;1.27;;
46284;SDS011;32018;59.182;18.148;2024-01-25T10:53:58;1.40;;;1.30;;
46284;SDS011;32018;59.182;18.148;2024-01-25T10:56:23;1.38;;;1.27;;
46284;SDS011;32018;59.182;18.148;2024-01-25T10:58:48;0.82;;;0.82;;
46284;SDS011;32018;59.182;18.148;2024-01-25T11:01:14;1.10;;;1.00;;
46284;SDS011;32018;59.182;18.148;2024-01-25T11:03:43;1.20;;;1.10;;
46284;SDS011;32018;59.182;18.148;2024-01-25T11:06:10;1.95;;;1.58;;
46284;SDS011;32018;59.182;18.148;2024-01-25T11:08:36;1.40;;;1.30;;
46284;SDS011;32018;59.182;18.148;2024-01-25T11:11:05;1.42;;;1.40;;
46284;SDS011;32018;59.182;18.148;2024-01-25T11:13:31;1.33;;;1.23;;
46284;SDS011;32018;59.182;18.148;2024-01-25T11:15:56;1.10;;;1.10;;
46284;SDS011;32018;59.182;18.148;2024-01-25T11:18:24;1.20;;;1.20;;
46284;SDS011;32018;59.182;18.148;2024-01-25T11:20:49;1.40;;;1.10;;
46284;SDS011;32018;59.182;18.148;2024-01-25T11:23:15;1.33;;;1.23;;
46284;SDS011;32018;59.182;18.148;2024-01-25T11:25:40;1.40;;;1.30;;
46284;SDS011;32018;59.182;18.148;2024-01-25T11:28:08;2.10;;;1.90;;
46284;SDS011;32018;59.182;18.148;2024-01-25T11:30:34;1.75;;;1.65;;
46284;SDS011;32018;59.182;18.148;2024-01-25T11:33:06;1.38;;;1.27;;
46284;SDS011;32018;59.182;18.148;2024-01-25T11:35:32;1.63;;;1.52;;
46284;SDS011;32018;59.182;18.148;2024-01-25T11:37:57;1.60;;;1.50;;
46284;SDS011;32018;59.182;18.148;2024-01-25T11:40:23;1.25;;;1.17;;
46284;SDS011;32018;59.182;18.148;2024-01-25T11:42:48;1.98;;;1.60;;
46284;SDS011;32018;59.182;18.148;2024-01-25T11:45:14;1.90;;;1.80;;
46284;SDS011;32018;59.182;18.148;2024-01-25T11:47:41;1.98;;;1.88;;
46284;SDS011;32018;59.182;18.148;2024-01-25T11:50:07;1.10;;;1.10;;
46284;SDS011;32018;59.182;18.148;2024-01-25T11:52:32;2.00;;;1.90;;
46284;SDS011;32018;59.182;18.148;2024-01-25T11:54:58;1.58;;;1.48;;
46284;SDS011;32018;59.182;18.148;2024-01-25T11:57:24;1.70;;;1.60;;
46284;SDS011;32018;59.182;18.148;2024-01-25T11:59:49;1.40;;;1.30;;
46284;SDS011;32018;59.182;18.148;2024-01-25T12:02:15;2.38;;;1.88;;
46284;SDS011;32018;59.182;18.148;2024-01-25T12:04:40;1.60;;;1.50;;
46284;SDS011;32018;59.182;18.148;2024-01-25T12:07:05;2.00;;;1.90;;
46284;SDS011;32018;59.182;18.148;2024-01-25T12:09:31;1.30;;;1.25;;
46284;SDS011;32018;59.182;18.148;2024-01-25T12:11:57;1.80;;;1.70;;
46284;SDS011;32018;59.182;18.148;2024-01-25T12:14:25;2.00;;;1.63;;
46284;SDS011;32018;59.182;18.148;2024-01-25T12:16:51;1.45;;;1.35;;
46284;SDS011;32018;59.182;18.148;2024-01-25T12:19:16;1.60;;;1.50;;
46284;SDS011;32018;59.182;18.148;2024-01-25T12:21:44;1.20;;;1.20;;
46284;SDS011;32018;59.182;18.148;2024-01-25T12:24:10;1.42;;;1.40;;
46284;SDS011;32018;59.182;18.148;2024-01-25T12:26:35;1.30;;;1.20;;
46284;SDS011;32018;59.182;18.148;2024-01-25T12:29:00;1.45;;;1.30;;
46284;SDS011;32018;59.182;18.148;2024-01-25T12:31:26;1.30;;;1.20;;
46284;SDS011;32018;59.182;18.148;2024-01-25T12:33:51;3.95;;;1.50;;
46284;SDS011;32018;59.182;18.148;2024-01-25T12:36:16;1.33;;;1.23;;
46284;SDS011;32018;59.182;18.148;2024-01-25T12:38:41;1.30;;;1.20;;
46284;SDS011;32018;59.182;18.148;2024-01-25T12:41:06;3.03;;;1.40;;
46284;SDS011;32018;59.182;18.148;2024-01-25T12:43:32;1.00;;;1.00;;
46284;SDS011;32018;59.182;18.148;2024-01-25T12:45:57;2.55;;;1.60;;
46284;SDS011;32018;59.182;18.148;2024-01-25T12:48:22;1.50;;;1.40;;
46284;SDS011;32018;59.182;18.148;2024-01-25T12:50:47;1.35;;;1.20;;
46284;SDS011;32018;59.182;18.148;2024-01-25T12:53:13;1.23;;;1.13;;
46284;SDS011;32018;59.182;18.148;2024-01-25T12:55:39;1.30;;;1.20;;
46284;SDS011;32018;59.182;18.148;2024-01-25T12:58:04;1.35;;;1.25;;
46284;SDS011;32018;59.182;18.148;2024-01-25T13:00:29;1.15;;;1.15;;
46284;SDS011;32018;59.182;18.148;2024-01-25T13:02:55;2.42;;;1.40;;
46284;SDS011;32018;59.182;18.148;2024-01-25T13:05:21;1.40;;;1.30;;
46284;SDS011;32018;59.182;18.148;2024-01-25T13:07:46;1.23;;;1.23;;
46284;SDS011;32018;59.182;18.148;2024-01-25T13:10:12;1.20;;;1.10;;
46284;SDS011;32018;59.182;18.148;2024-01-25T13:12:37;1.40;;;1.30;;
46284;SDS011;32018;59.182;18.148;2024-01-25T13:15:03;1.65;;;1.25;;
46284;SDS011;32018;59.182;18.148;2024-01-25T13:17:29;1.10;;;1.10;;
46284;SDS011;32018;59.182;18.148;2024-01-25T13:19:55;1.48;;;1.00;;
46284;SDS011;32018;59.182;18.148;2024-01-25T13:22:20;1.20;;;1.10;;
46284;SDS011;32018;59.182;18.148;2024-01-25T13:24:47;0.90;;;0.90;;
46284;SDS011;32018;59.182;18.148;2024-01-25T13:27:12;1.10;;;1.00;;
46284;SDS011;32018;59.182;18.148;2024-01-25T13:29:37;0.90;;;0.90;;
46284;SDS011;32018;59.182;18.148;2024-01-25T13:32:03;0.93;;;0.93;;
46284;SDS011;32018;59.182;18.148;2024-01-25T13:34:28;1.02;;;1.02;;
46284;SDS011;32018;59.182;18.148;2024-01-25T13:36:53;1.00;;;1.00;;
46284;SDS011;32018;59.182;18.148;2024-01-25T13:39:19;1.30;;;1.20;;
46284;SDS011;32018;59.182;18.148;2024-01-25T13:41:44;1.00;;;1.00;;
46284;SDS011;32018;59.182;18.148;2024-01-25T13:44:11;1.40;;;1.27;;
46284;SDS011;32018;59.182;18.148;2024-01-25T13:46:36;0.90;;;0.90;;
46284;SDS011;32018;59.182;18.148;2024-01-25T13:49:02;1.10;;;1.10;;
46284;SDS011;32018;59.182;18.148;2024-01-25T13:51:27;1.17;;;1.10;;
46284;SDS011;32018;59.182;18.148;2024-01-25T13:53:52;0.90;;;0.90;;
46284;SDS011;32018;59.182;18.148;2024-01-25T13:56:17;0.80;;;0.80;;
46284;SDS011;32018;59.182;18.148;2024-01-25T13:58:43;0.90;;;0.90;;
46284;SDS011;32018;59.182;18.148;2024-01-25T14:01:08;0.80;;;0.80;;
46284;SDS011;32018;59.182;18.148;2024-01-25T14:03:33;0.83;;;0.83;;
46284;SDS011;32018;59.182;18.148;2024-01-25T14:05:59;1.30;;;1.00;;
46284;SDS011;32018;59.182;18.148;2024-01-25T14:08:29;1.20;;;0.80;;
46284;SDS011;32018;59.182;18.148;2024-01-25T14:10:54;0.80;;;0.80;;
46284;SDS011;32018;59.182;18.148;2024-01-25T14:13:19;0.88;;;0.88;;
46284;SDS011;32018;59.182;18.148;2024-01-25T14:15:44;0.70;;;0.70;;
46284;SDS011;32018;59.182;18.148;2024-01-25T14:18:09;0.80;;;0.80;;
46284;SDS011;32018;59.182;18.148;2024-01-25T14:20:35;0.60;;;0.60;;
46284;SDS011;32018;59.182;18.148;2024-01-25T14:23:02;0.90;;;0.90;;